sensor_id;sensor_type;location;lat;lon;timestamp;P1;durP1;ratioP1;P2;durP2;ratioP2
75912;SDS011;64592;52.168;21.040;2024-03-07T00:00:55;18.13;;;9.40;;
75912;SDS011;64592;52.168;21.040;2024-03-07T00:05:58;20.33;;;9.05;;
75912;SDS011;64592;52.168;21.040;2024-03-07T00:11:01;18.20;;;9.70;;
75912;SDS011;64592;52.168;21.040;2024-03-07T00:16:02;20.65;;;10.65;;
75912;SDS011;64592;52.168;21.040;2024-03-07T00:21:06;20.17;;;10.73;;
75912;SDS011;64592;52.168;21.040;2024-03-07T00:26:08;17.65;;;9.63;;
75912;SDS011;64592;52.168;21.040;2024-03-07T00:31:10;21.38;;;10.55;;
75912;SDS011;64592;52.168;21.040;2024-03-07T00:36:13;22.40;;;12.43;;
75912;SDS011;64592;52.168;21.040;2024-03-07T00:41:15;18.85;;;10.00;;
75912;SDS011;64592;52.168;21.040;2024-03-07T00:46:18;18.00;;;10.15;;
75912;SDS011;64592;52.168;21.040;2024-03-07T00:51:21;18.38;;;10.43;;
75912;SDS011;64592;52.168;21.040;2024-03-07T00:56:22;20.02;;;10.48;;
75912;SDS011;64592;52.168;21.040;2024-03-07T01:01:24;19.85;;;10.98;;
75912;SDS011;64592;52.168;21.040;2024-03-07T01:06:27;18.35;;;10.05;;
75912;SDS011;64592;52.168;21.040;2024-03-07T01:11:29;24.13;;;11.18;;
75912;SDS011;64592;52.168;21.040;2024-03-07T01:16:31;16.48;;;8.60;;
75912;SDS011;64592;52.168;21.040;2024-03-07T01:21:34;19.40;;;11.13;;
75912;SDS011;64592;52.168;21.040;2024-03-07T01:26:36;19.00;;;10.02;;
75912;SDS011;64592;52.168;21.040;2024-03-07T01:31:38;17.38;;;9.05;;
75912;SDS011;64592;52.168;21.040;2024-03-07T01:36:41;20.63;;;10.85;;
75912;SDS011;64592;52.168;21.040;2024-03-07T01:41:42;20.92;;;10.65;;
75912;SDS011;64592;52.168;21.040;2024-03-07T01:46:44;24.13;;;11.68;;
75912;SDS011;64592;52.168;21.040;2024-03-07T01:51:48;25.50;;;11.38;;
75912;SDS011;64592;52.168;21.040;2024-03-07T01:56:50;26.27;;;11.90;;
75912;SDS011;64592;52.168;21.040;2024-03-07T02:01:52;21.38;;;10.88;;
75912;SDS011;64592;52.168;21.040;2024-03-07T02:06:56;17.98;;;10.20;;
75912;SDS011;64592;52.168;21.040;2024-03-07T02:11:58;23.08;;;11.70;;
75912;SDS011;64592;52.168;21.040;2024-03-07T02:17:00;19.67;;;10.40;;
75912;SDS011;64592;52.168;21.040;2024-03-07T02:22:04;20.45;;;10.38;;
75912;SDS011;64592;52.168;21.040;2024-03-07T02:27:05;16.48;;;8.93;;
75912;SDS011;64592;52.168;21.040;2024-03-07T02:32:08;20.05;;;10.20;;
75912;SDS011;64592;52.168;21.040;2024-03-07T02:37:13;21.58;;;10.60;;
75912;SDS011;64592;52.168;21.040;2024-03-07T02:42:14;17.25;;;9.35;;
75912;SDS011;64592;52.168;21.040;2024-03-07T02:47:16;21.67;;;10.48;;
75912;SDS011;64592;52.168;21.040;2024-03-07T02:52:19;18.85;;;10.27;;
75912;SDS011;64592;52.168;21.040;2024-03-07T02:57:21;20.70;;;10.05;;
75912;SDS011;64592;52.168;21.040;2024-03-07T03:02:23;17.58;;;10.27;;
75912;SDS011;64592;52.168;21.040;2024-03-07T03:07:26;19.05;;;9.63;;
75912;SDS011;64592;52.168;21.040;2024-03-07T03:12:28;18.75;;;9.25;;
75912;SDS011;64592;52.168;21.040;2024-03-07T03:17:30;24.25;;;9.70;;
75912;SDS011;64592;52.168;21.040;2024-03-07T03:22:33;20.35;;;9.57;;
75912;SDS011;64592;52.168;21.040;2024-03-07T03:27:35;22.30;;;10.27;;
75912;SDS011;64592;52.168;21.040;2024-03-07T03:32:36;18.13;;;9.77;;
75912;SDS011;64592;52.168;21.040;2024-03-07T03:37:40;16.48;;;9.07;;
75912;SDS011;64592;52.168;21.040;2024-03-07T03:42:43;20.42;;;11.82;;
75912;SDS011;64592;52.168;21.040;2024-03-07T03:47:45;20.67;;;9.65;;
75912;SDS011;64592;52.168;21.040;2024-03-07T03:52:49;20.85;;;10.45;;
75912;SDS011;64592;52.168;21.040;2024-03-07T03:57:51;16.73;;;8.60;;
75912;SDS011;64592;52.168;21.040;2024-03-07T04:02:53;20.27;;;10.57;;
75912;SDS011;64592;52.168;21.040;2024-03-07T04:07:56;17.27;;;9.10;;
75912;SDS011;64592;52.168;21.040;2024-03-07T04:12:58;19.80;;;10.48;;
75912;SDS011;64592;52.168;21.040;2024-03-07T04:18:00;14.57;;;8.65;;
75912;SDS011;64592;52.168;21.040;2024-03-07T04:23:03;21.05;;;9.18;;
75912;SDS011;64592;52.168;21.040;2024-03-07T04:28:05;18.20;;;10.05;;
75912;SDS011;64592;52.168;21.040;2024-03-07T04:33:08;19.15;;;9.48;;
75912;SDS011;64592;52.168;21.040;2024-03-07T04:38:11;17.85;;;9.27;;
75912;SDS011;64592;52.168;21.040;2024-03-07T04:43:15;23.35;;;11.15;;
75912;SDS011;64592;52.168;21.040;2024-03-07T04:48:16;21.38;;;10.10;;
75912;SDS011;64592;52.168;21.040;2024-03-07T04:53:19;16.83;;;9.55;;
75912;SDS011;64592;52.168;21.040;2024-03-07T04:58:21;19.60;;;9.80;;
75912;SDS011;64592;52.168;21.040;2024-03-07T05:03:23;22.55;;;9.18;;
75912;SDS011;64592;52.168;21.040;2024-03-07T05:08:26;22.35;;;10.27;;
75912;SDS011;64592;52.168;21.040;2024-03-07T05:13:28;21.23;;;9.35;;
75912;SDS011;64592;52.168;21.040;2024-03-07T05:18:31;20.08;;;9.65;;
75912;SDS011;64592;52.168;21.040;2024-03-07T05:23:34;20.77;;;10.23;;
75912;SDS011;64592;52.168;21.040;2024-03-07T05:28:36;19.77;;;9.02;;
75912;SDS011;64592;52.168;21.040;2024-03-07T05:33:37;20.65;;;9.80;;
75912;SDS011;64592;52.168;21.040;2024-03-07T05:38:42;18.98;;;10.02;;
75912;SDS011;64592;52.168;21.040;2024-03-07T05:43:44;22.08;;;10.60;;
75912;SDS011;64592;52.168;21.040;2024-03-07T05:48:46;20.98;;;9.57;;
75912;SDS011;64592;52.168;21.040;2024-03-07T05:53:53;22.83;;;10.80;;
75912;SDS011;64592;52.168;21.040;2024-03-07T05:58:55;22.35;;;9.63;;
75912;SDS011;64592;52.168;21.040;2024-03-07T06:03:56;20.60;;;9.07;;
75912;SDS011;64592;52.168;21.040;2024-03-07T06:09:00;18.88;;;9.05;;
75912;SDS011;64592;52.168;21.040;2024-03-07T06:14:03;16.40;;;8.57;;
75912;SDS011;64592;52.168;21.040;2024-03-07T06:19:05;20.38;;;9.32;;
75912;SDS011;64592;52.168;21.040;2024-03-07T06:24:10;18.40;;;9.57;;
75912;SDS011;64592;52.168;21.040;2024-03-07T06:29:15;19.63;;;9.50;;
75912;SDS011;64592;52.168;21.040;2024-03-07T06:34:17;19.95;;;9.48;;
75912;SDS011;64592;52.168;21.040;2024-03-07T06:39:20;20.70;;;10.13;;
75912;SDS011;64592;52.168;21.040;2024-03-07T06:44:22;22.83;;;10.02;;
75912;SDS011;64592;52.168;21.040;2024-03-07T06:49:24;18.35;;;8.77;;
75912;SDS011;64592;52.168;21.040;2024-03-07T06:54:27;16.80;;;8.20;;
75912;SDS011;64592;52.168;21.040;2024-03-07T06:59:28;19.00;;;8.93;;
75912;SDS011;64592;52.168;21.040;2024-03-07T07:04:31;16.25;;;7.50;;
75912;SDS011;64592;52.168;21.040;2024-03-07T07:09:43;16.52;;;8.15;;
75912;SDS011;64592;52.168;21.040;2024-03-07T07:14:44;16.42;;;8.70;;
75912;SDS011;64592;52.168;21.040;2024-03-07T07:19:46;13.88;;;7.78;;
75912;SDS011;64592;52.168;21.040;2024-03-07T07:24:49;22.75;;;10.85;;
75912;SDS011;64592;52.168;21.040;2024-03-07T07:29:51;17.77;;;8.02;;
75912;SDS011;64592;52.168;21.040;2024-03-07T07:34:52;14.88;;;8.10;;
75912;SDS011;64592;52.168;21.040;2024-03-07T07:39:55;17.00;;;8.63;;
75912;SDS011;64592;52.168;21.040;2024-03-07T07:44:57;13.45;;;6.75;;
75912;SDS011;64592;52.168;21.040;2024-03-07T07:49:59;15.43;;;7.80;;
75912;SDS011;64592;52.168;21.040;2024-03-07T07:55:03;14.30;;;7.72;;
75912;SDS011;64592;52.168;21.040;2024-03-07T08:00:05;15.23;;;7.65;;
75912;SDS011;64592;52.168;21.040;2024-03-07T08:05:09;13.23;;;7.07;;
75912;SDS011;64592;52.168;21.040;2024-03-07T08:10:18;12.00;;;6.65;;
75912;SDS011;64592;52.168;21.040;2024-03-07T08:15:20;13.45;;;6.85;;
75912;SDS011;64592;52.168;21.040;2024-03-07T08:20:23;14.43;;;8.05;;
75912;SDS011;64592;52.168;21.040;2024-03-07T08:25:28;12.88;;;7.47;;
75912;SDS011;64592;52.168;21.040;2024-03-07T08:30:30;16.38;;;7.25;;
75912;SDS011;64592;52.168;21.040;2024-03-07T08:35:31;18.17;;;8.27;;
75912;SDS011;64592;52.168;21.040;2024-03-07T08:40:34;14.15;;;5.90;;
75912;SDS011;64592;52.168;21.040;2024-03-07T08:45:37;15.07;;;7.35;;
75912;SDS011;64592;52.168;21.040;2024-03-07T08:50:38;12.30;;;6.25;;
75912;SDS011;64592;52.168;21.040;2024-03-07T08:55:41;14.60;;;6.18;;
75912;SDS011;64592;52.168;21.040;2024-03-07T09:00:43;11.95;;;5.70;;
75912;SDS011;64592;52.168;21.040;2024-03-07T09:05:46;12.50;;;5.57;;
75912;SDS011;64592;52.168;21.040;2024-03-07T09:10:49;10.93;;;5.03;;
75912;SDS011;64592;52.168;21.040;2024-03-07T09:15:55;9.98;;;4.75;;
75912;SDS011;64592;52.168;21.040;2024-03-07T09:20:56;13.10;;;5.88;;
75912;SDS011;64592;52.168;21.040;2024-03-07T09:25:59;9.32;;;5.10;;
75912;SDS011;64592;52.168;21.040;2024-03-07T09:31:03;9.05;;;5.45;;
75912;SDS011;64592;52.168;21.040;2024-03-07T09:36:04;7.70;;;4.55;;
75912;SDS011;64592;52.168;21.040;2024-03-07T09:41:08;7.38;;;4.78;;
75912;SDS011;64592;52.168;21.040;2024-03-07T09:46:10;8.95;;;4.28;;
75912;SDS011;64592;52.168;21.040;2024-03-07T09:51:12;9.48;;;4.78;;
75912;SDS011;64592;52.168;21.040;2024-03-07T09:56:19;7.03;;;4.53;;
75912;SDS011;64592;52.168;21.040;2024-03-07T10:01:22;8.48;;;3.80;;
75912;SDS011;64592;52.168;21.040;2024-03-07T10:06:27;7.90;;;4.03;;
75912;SDS011;64592;52.168;21.040;2024-03-07T10:11:32;7.85;;;5.07;;
75912;SDS011;64592;52.168;21.040;2024-03-07T10:16:34;7.53;;;4.50;;
75912;SDS011;64592;52.168;21.040;2024-03-07T10:21:35;8.05;;;4.30;;
75912;SDS011;64592;52.168;21.040;2024-03-07T10:26:38;7.90;;;4.45;;
75912;SDS011;64592;52.168;21.040;2024-03-07T10:31:40;10.27;;;5.10;;
75912;SDS011;64592;52.168;21.040;2024-03-07T10:36:44;6.72;;;3.75;;
75912;SDS011;64592;52.168;21.040;2024-03-07T10:41:47;8.48;;;4.53;;
75912;SDS011;64592;52.168;21.040;2024-03-07T10:46:51;7.55;;;4.15;;
75912;SDS011;64592;52.168;21.040;2024-03-07T10:51:57;7.82;;;4.13;;
75912;SDS011;64592;52.168;21.040;2024-03-07T10:57:08;5.47;;;3.33;;
75912;SDS011;64592;52.168;21.040;2024-03-07T11:02:19;6.57;;;4.00;;
75912;SDS011;64592;52.168;21.040;2024-03-07T11:07:28;7.35;;;4.18;;
75912;SDS011;64592;52.168;21.040;2024-03-07T11:12:32;6.30;;;4.25;;
75912;SDS011;64592;52.168;21.040;2024-03-07T11:17:35;8.38;;;4.10;;
75912;SDS011;64592;52.168;21.040;2024-03-07T11:22:36;8.40;;;4.18;;
75912;SDS011;64592;52.168;21.040;2024-03-07T11:27:40;7.93;;;4.93;;
75912;SDS011;64592;52.168;21.040;2024-03-07T11:32:54;11.07;;;5.65;;
75912;SDS011;64592;52.168;21.040;2024-03-07T11:37:58;10.27;;;5.03;;
75912;SDS011;64592;52.168;21.040;2024-03-07T11:43:01;9.45;;;4.65;;
75912;SDS011;64592;52.168;21.040;2024-03-07T11:48:05;6.25;;;4.18;;
75912;SDS011;64592;52.168;21.040;2024-03-07T11:53:09;7.90;;;4.38;;
75912;SDS011;64592;52.168;21.040;2024-03-07T11:58:15;8.13;;;4.47;;
75912;SDS011;64592;52.168;21.040;2024-03-07T12:03:19;7.70;;;4.65;;
75912;SDS011;64592;52.168;21.040;2024-03-07T12:08:22;7.25;;;4.72;;
75912;SDS011;64592;52.168;21.040;2024-03-07T12:13:25;8.98;;;4.90;;
75912;SDS011;64592;52.168;21.040;2024-03-07T12:18:28;8.68;;;4.70;;
75912;SDS011;64592;52.168;21.040;2024-03-07T12:23:30;8.63;;;4.72;;
75912;SDS011;64592;52.168;21.040;2024-03-07T12:28:34;8.52;;;4.97;;
75912;SDS011;64592;52.168;21.040;2024-03-07T12:33:38;9.48;;;5.03;;
75912;SDS011;64592;52.168;21.040;2024-03-07T12:38:42;8.07;;;4.90;;
75912;SDS011;64592;52.168;21.040;2024-03-07T12:43:45;11.00;;;5.53;;
75912;SDS011;64592;52.168;21.040;2024-03-07T12:48:47;7.45;;;4.72;;
75912;SDS011;64592;52.168;21.040;2024-03-07T12:53:49;9.25;;;5.07;;
75912;SDS011;64592;52.168;21.040;2024-03-07T12:58:52;7.90;;;4.90;;
75912;SDS011;64592;52.168;21.040;2024-03-07T13:03:54;8.80;;;5.03;;
75912;SDS011;64592;52.168;21.040;2024-03-07T13:08:56;10.60;;;5.45;;
75912;SDS011;64592;52.168;21.040;2024-03-07T13:13:59;13.20;;;5.70;;
75912;SDS011;64592;52.168;21.040;2024-03-07T13:19:01;8.65;;;5.32;;
75912;SDS011;64592;52.168;21.040;2024-03-07T13:24:05;9.88;;;5.13;;
75912;SDS011;64592;52.168;21.040;2024-03-07T13:29:09;9.15;;;4.80;;
75912;SDS011;64592;52.168;21.040;2024-03-07T13:34:12;9.23;;;4.53;;
75912;SDS011;64592;52.168;21.040;2024-03-07T13:39:14;7.75;;;4.47;;
75912;SDS011;64592;52.168;21.040;2024-03-07T13:44:18;9.52;;;5.50;;
75912;SDS011;64592;52.168;21.040;2024-03-07T13:49:22;9.48;;;4.72;;
75912;SDS011;64592;52.168;21.040;2024-03-07T13:54:24;6.72;;;4.30;;
75912;SDS011;64592;52.168;21.040;2024-03-07T13:59:51;8.15;;;4.78;;
75912;SDS011;64592;52.168;21.040;2024-03-07T14:10:50;10.18;;;5.45;;
75912;SDS011;64592;52.168;21.040;2024-03-07T14:22:12;9.57;;;5.63;;
75912;SDS011;64592;52.168;21.040;2024-03-07T14:27:30;8.73;;;4.32;;
75912;SDS011;64592;52.168;21.040;2024-03-07T14:32:37;12.32;;;4.85;;
75912;SDS011;64592;52.168;21.040;2024-03-07T14:37:44;11.10;;;5.03;;
75912;SDS011;64592;52.168;21.040;2024-03-07T14:42:50;8.98;;;5.25;;
75912;SDS011;64592;52.168;21.040;2024-03-07T14:47:58;8.95;;;4.70;;
75912;SDS011;64592;52.168;21.040;2024-03-07T14:53:00;8.38;;;4.43;;
75912;SDS011;64592;52.168;21.040;2024-03-07T14:58:03;8.57;;;4.93;;
75912;SDS011;64592;52.168;21.040;2024-03-07T15:03:07;11.05;;;4.88;;
75912;SDS011;64592;52.168;21.040;2024-03-07T15:08:11;9.00;;;4.82;;
75912;SDS011;64592;52.168;21.040;2024-03-07T15:13:12;6.97;;;5.10;;
75912;SDS011;64592;52.168;21.040;2024-03-07T15:18:15;9.10;;;6.28;;
75912;SDS011;64592;52.168;21.040;2024-03-07T15:23:17;9.75;;;4.95;;
75912;SDS011;64592;52.168;21.040;2024-03-07T15:28:18;10.25;;;4.97;;
75912;SDS011;64592;52.168;21.040;2024-03-07T15:33:23;10.65;;;5.28;;
75912;SDS011;64592;52.168;21.040;2024-03-07T15:38:25;10.57;;;5.57;;
75912;SDS011;64592;52.168;21.040;2024-03-07T15:43:27;11.85;;;5.15;;
75912;SDS011;64592;52.168;21.040;2024-03-07T15:48:30;9.07;;;5.22;;
75912;SDS011;64592;52.168;21.040;2024-03-07T15:53:33;9.57;;;5.22;;
75912;SDS011;64592;52.168;21.040;2024-03-07T15:58:34;11.57;;;5.28;;
75912;SDS011;64592;52.168;21.040;2024-03-07T16:03:37;10.82;;;5.07;;
75912;SDS011;64592;52.168;21.040;2024-03-07T16:08:39;10.00;;;5.10;;
75912;SDS011;64592;52.168;21.040;2024-03-07T16:13:41;9.65;;;5.65;;
75912;SDS011;64592;52.168;21.040;2024-03-07T16:18:45;10.88;;;5.80;;
75912;SDS011;64592;52.168;21.040;2024-03-07T16:23:47;10.23;;;5.70;;
75912;SDS011;64592;52.168;21.040;2024-03-07T16:28:52;11.82;;;5.32;;
75912;SDS011;64592;52.168;21.040;2024-03-07T16:33:55;10.65;;;5.72;;
75912;SDS011;64592;52.168;21.040;2024-03-07T16:38:58;8.57;;;5.68;;
75912;SDS011;64592;52.168;21.040;2024-03-07T16:44:07;11.00;;;5.32;;
75912;SDS011;64592;52.168;21.040;2024-03-07T16:49:10;9.57;;;5.00;;
75912;SDS011;64592;52.168;21.040;2024-03-07T16:54:14;11.23;;;5.88;;
75912;SDS011;64592;52.168;21.040;2024-03-07T16:59:16;16.65;;;6.07;;
75912;SDS011;64592;52.168;21.040;2024-03-07T17:04:19;7.63;;;4.93;;
75912;SDS011;64592;52.168;21.040;2024-03-07T17:09:21;11.18;;;5.40;;
75912;SDS011;64592;52.168;21.040;2024-03-07T17:14:22;12.80;;;5.75;;
75912;SDS011;64592;52.168;21.040;2024-03-07T17:19:26;10.02;;;5.15;;
75912;SDS011;64592;52.168;21.040;2024-03-07T17:24:27;10.57;;;5.18;;
75912;SDS011;64592;52.168;21.040;2024-03-07T17:29:30;12.15;;;6.53;;
75912;SDS011;64592;52.168;21.040;2024-03-07T17:34:33;12.32;;;5.75;;
75912;SDS011;64592;52.168;21.040;2024-03-07T17:39:35;11.73;;;5.70;;
75912;SDS011;64592;52.168;21.040;2024-03-07T17:44:37;12.68;;;6.18;;
75912;SDS011;64592;52.168;21.040;2024-03-07T17:49:40;11.50;;;6.13;;
75912;SDS011;64592;52.168;21.040;2024-03-07T17:54:43;13.02;;;6.10;;
75912;SDS011;64592;52.168;21.040;2024-03-07T17:59:47;18.88;;;6.65;;
75912;SDS011;64592;52.168;21.040;2024-03-07T18:04:50;12.32;;;6.20;;
75912;SDS011;64592;52.168;21.040;2024-03-07T18:09:52;16.40;;;6.68;;
75912;SDS011;64592;52.168;21.040;2024-03-07T18:14:54;11.95;;;6.45;;
75912;SDS011;64592;52.168;21.040;2024-03-07T18:19:57;14.05;;;5.82;;
75912;SDS011;64592;52.168;21.040;2024-03-07T18:24:59;13.23;;;6.32;;
75912;SDS011;64592;52.168;21.040;2024-03-07T18:30:01;15.13;;;7.05;;
75912;SDS011;64592;52.168;21.040;2024-03-07T18:35:13;10.77;;;6.47;;
75912;SDS011;64592;52.168;21.040;2024-03-07T18:40:15;17.67;;;6.90;;
75912;SDS011;64592;52.168;21.040;2024-03-07T18:45:21;17.33;;;7.80;;
75912;SDS011;64592;52.168;21.040;2024-03-07T18:50:26;12.60;;;7.32;;
75912;SDS011;64592;52.168;21.040;2024-03-07T18:55:28;19.25;;;8.93;;
75912;SDS011;64592;52.168;21.040;2024-03-07T19:00:30;24.23;;;9.25;;
75912;SDS011;64592;52.168;21.040;2024-03-07T19:05:34;13.57;;;8.38;;
75912;SDS011;64592;52.168;21.040;2024-03-07T19:10:38;21.20;;;9.60;;
75912;SDS011;64592;52.168;21.040;2024-03-07T19:15:42;16.70;;;8.80;;
75912;SDS011;64592;52.168;21.040;2024-03-07T19:20:47;15.27;;;8.35;;
75912;SDS011;64592;52.168;21.040;2024-03-07T19:25:49;17.48;;;9.00;;
75912;SDS011;64592;52.168;21.040;2024-03-07T19:30:51;15.23;;;8.07;;
75912;SDS011;64592;52.168;21.040;2024-03-07T19:35:54;21.17;;;10.15;;
75912;SDS011;64592;52.168;21.040;2024-03-07T19:40:58;20.17;;;8.25;;
75912;SDS011;64592;52.168;21.040;2024-03-07T19:46:01;21.23;;;8.77;;
75912;SDS011;64592;52.168;21.040;2024-03-07T19:51:05;18.60;;;9.57;;
75912;SDS011;64592;52.168;21.040;2024-03-07T19:56:09;16.60;;;8.88;;
75912;SDS011;64592;52.168;21.040;2024-03-07T20:01:18;20.80;;;9.50;;
75912;SDS011;64592;52.168;21.040;2024-03-07T20:06:22;18.60;;;9.23;;
75912;SDS011;64592;52.168;21.040;2024-03-07T20:11:24;18.90;;;9.40;;
75912;SDS011;64592;52.168;21.040;2024-03-07T20:16:25;24.73;;;10.35;;
75912;SDS011;64592;52.168;21.040;2024-03-07T20:21:38;27.35;;;11.55;;
75912;SDS011;64592;52.168;21.040;2024-03-07T20:26:40;21.27;;;10.30;;
75912;SDS011;64592;52.168;21.040;2024-03-07T20:31:46;19.70;;;9.85;;
75912;SDS011;64592;52.168;21.040;2024-03-07T20:36:49;25.27;;;11.55;;
75912;SDS011;64592;52.168;21.040;2024-03-07T20:41:51;21.83;;;11.00;;
75912;SDS011;64592;52.168;21.040;2024-03-07T20:46:53;25.02;;;12.85;;
75912;SDS011;64592;52.168;21.040;2024-03-07T20:51:58;26.52;;;12.10;;
75912;SDS011;64592;52.168;21.040;2024-03-07T20:56:59;29.58;;;13.57;;
75912;SDS011;64592;52.168;21.040;2024-03-07T21:02:01;24.13;;;14.25;;
75912;SDS011;64592;52.168;21.040;2024-03-07T21:07:04;24.65;;;11.65;;
75912;SDS011;64592;52.168;21.040;2024-03-07T21:12:08;27.67;;;13.85;;
75912;SDS011;64592;52.168;21.040;2024-03-07T21:17:09;27.85;;;12.82;;
75912;SDS011;64592;52.168;21.040;2024-03-07T21:22:12;25.83;;;12.80;;
75912;SDS011;64592;52.168;21.040;2024-03-07T21:27:14;28.45;;;12.93;;
75912;SDS011;64592;52.168;21.040;2024-03-07T21:32:15;22.05;;;12.65;;
75912;SDS011;64592;52.168;21.040;2024-03-07T21:37:19;25.48;;;12.88;;
75912;SDS011;64592;52.168;21.040;2024-03-07T21:42:21;32.50;;;13.38;;
75912;SDS011;64592;52.168;21.040;2024-03-07T21:47:23;26.40;;;12.93;;
75912;SDS011;64592;52.168;21.040;2024-03-07T21:52:26;24.30;;;13.02;;
75912;SDS011;64592;52.168;21.040;2024-03-07T21:57:28;23.58;;;12.65;;
75912;SDS011;64592;52.168;21.040;2024-03-07T22:02:30;23.90;;;12.95;;
75912;SDS011;64592;52.168;21.040;2024-03-07T22:07:33;29.67;;;14.95;;
75912;SDS011;64592;52.168;21.040;2024-03-07T22:12:34;31.33;;;15.73;;
75912;SDS011;64592;52.168;21.040;2024-03-07T22:17:36;35.55;;;16.38;;
75912;SDS011;64592;52.168;21.040;2024-03-07T22:22:42;40.10;;;18.23;;
75912;SDS011;64592;52.168;21.040;2024-03-07T22:27:44;28.35;;;16.48;;
75912;SDS011;64592;52.168;21.040;2024-03-07T22:32:45;39.00;;;17.52;;
75912;SDS011;64592;52.168;21.040;2024-03-07T22:37:48;32.67;;;15.65;;
75912;SDS011;64592;52.168;21.040;2024-03-07T22:42:51;37.05;;;17.73;;
75912;SDS011;64592;52.168;21.040;2024-03-07T22:47:53;36.95;;;16.90;;
75912;SDS011;64592;52.168;21.040;2024-03-07T22:52:56;31.55;;;16.42;;
75912;SDS011;64592;52.168;21.040;2024-03-07T22:57:58;35.80;;;16.10;;
75912;SDS011;64592;52.168;21.040;2024-03-07T23:02:59;30.10;;;14.95;;
75912;SDS011;64592;52.168;21.040;2024-03-07T23:08:06;36.00;;;16.17;;
75912;SDS011;64592;52.168;21.040;2024-03-07T23:13:07;36.35;;;14.48;;
75912;SDS011;64592;52.168;21.040;2024-03-07T23:18:13;33.40;;;16.05;;
75912;SDS011;64592;52.168;21.040;2024-03-07T23:23:16;37.35;;;17.67;;
75912;SDS011;64592;52.168;21.040;2024-03-07T23:28:17;36.08;;;17.40;;
75912;SDS011;64592;52.168;21.040;2024-03-07T23:33:19;36.10;;;15.65;;
75912;SDS011;64592;52.168;21.040;2024-03-07T23:38:22;31.63;;;16.95;;
75912;SDS011;64592;52.168;21.040;2024-03-07T23:43:24;35.25;;;16.55;;
75912;SDS011;64592;52.168;21.040;2024-03-07T23:48:26;29.05;;;15.85;;
75912;SDS011;64592;52.168;21.040;2024-03-07T23:53:30;35.20;;;17.73;;
75912;SDS011;64592;52.168;21.040;2024-03-07T23:58:31;35.28;;;16.98;;
